createdAt,value
2022-12-15T00:01:41.981Z,101137.31
2022-12-15T00:04:28.161Z,101146.94
2022-12-15T00:07:13.496Z,101150.47
2022-12-15T00:10:00.913Z,101142.69
2022-12-15T00:12:47.522Z,101139.25
2022-12-15T00:15:36.103Z,101145.41
2022-12-15T00:18:24.519Z,101141.34
2022-12-15T00:21:09.847Z,101140.59
2022-12-15T00:23:55.382Z,101137.13
2022-12-15T00:26:41.163Z,101133.75
2022-12-15T00:29:28.794Z,101128.84
2022-12-15T00:32:17.001Z,101140.16
2022-12-15T00:35:06.828Z,101137.59
2022-12-15T00:37:52.502Z,101144.69
2022-12-15T00:40:22.104Z,101138.78
2022-12-15T00:42:52.607Z,101136.25
2022-12-15T00:45:42.523Z,101124.28
2022-12-15T00:48:09.543Z,101138.88
2022-12-15T00:50:55.466Z,101147.56
2022-12-15T00:53:41.682Z,101138.94
2022-12-15T00:56:27.145Z,101138.09
2022-12-15T00:59:15.033Z,101139.00
2022-12-15T01:02:05.936Z,101134.81
2022-12-15T01:04:52.315Z,101141.72
2022-12-15T01:07:37.851Z,101145.34
2022-12-15T01:10:24.163Z,101151.56
2022-12-15T01:13:09.940Z,101163.06
2022-12-15T01:15:56.770Z,101163.19
2022-12-15T01:18:44.570Z,101164.31
2022-12-15T01:21:23.251Z,101167.06
2022-12-15T01:23:53.445Z,101168.22
2022-12-15T01:26:21.591Z,101162.28
2022-12-15T01:28:51.258Z,101162.47
2022-12-15T01:31:19.382Z,101159.25
2022-12-15T01:33:48.842Z,101156.06
2022-12-15T01:36:16.813Z,101167.47
2022-12-15T01:38:50.684Z,101163.31
2022-12-15T01:41:20.966Z,101153.09
2022-12-15T01:43:50.155Z,101153.25
2022-12-15T01:46:22.416Z,101149.09
2022-12-15T01:48:55.484Z,101152.03
2022-12-15T01:51:26.401Z,101157.69
2022-12-15T01:54:00.862Z,101163.06
2022-12-15T01:56:36.843Z,101159.91
2022-12-15T01:59:06.536Z,101163.38
2022-12-15T02:01:35.068Z,101168.75
2022-12-15T02:04:05.412Z,101171.44
2022-12-15T02:06:39.293Z,101172.28
2022-12-15T02:09:08.658Z,101169.03
2022-12-15T02:11:58.868Z,101172.44
2022-12-15T02:14:45.775Z,101176.97
2022-12-15T02:17:34.277Z,101172.88
2022-12-15T02:20:48.764Z,101173.88
2022-12-15T02:23:45.463Z,101180.06
2022-12-15T02:26:45.741Z,101178.53
2022-12-15T02:29:25.555Z,101178.59
2022-12-15T02:31:58.240Z,101177.16
2022-12-15T02:34:29.553Z,101183.22
2022-12-15T02:36:59.524Z,101183.28
2022-12-15T02:39:42.770Z,101188.50
2022-12-15T02:42:11.959Z,101185.09
2022-12-15T02:44:41.070Z,101184.88
2022-12-15T02:47:19.260Z,101200.47
2022-12-15T02:49:53.941Z,101194.47
2022-12-15T02:52:27.950Z,101197.19
2022-12-15T02:55:03.171Z,101198.03
2022-12-15T02:57:35.460Z,101196.09
2022-12-15T03:00:06.838Z,101193.50
2022-12-15T03:02:39.135Z,101189.13
2022-12-15T03:05:08.127Z,101197.75
2022-12-15T03:07:36.572Z,101194.22
2022-12-15T03:10:05.674Z,101204.78
2022-12-15T03:12:34.001Z,101210.00
2022-12-15T03:15:05.862Z,101196.41
2022-12-15T03:17:35.670Z,101199.00
2022-12-15T03:20:06.212Z,101204.28
2022-12-15T03:22:39.524Z,101199.94
2022-12-15T03:25:13.068Z,101196.53
2022-12-15T03:27:41.502Z,101187.72
2022-12-15T03:30:10.918Z,101201.56
2022-12-15T03:32:39.298Z,101190.19
2022-12-15T03:35:09.794Z,101194.47
2022-12-15T03:37:40.377Z,101196.16
2022-12-15T03:40:13.921Z,101197.25
2022-12-15T03:42:50.390Z,101191.13
2022-12-15T03:45:19.500Z,101203.94
2022-12-15T03:47:49.114Z,101202.25
2022-12-15T03:50:19.727Z,101204.91
2022-12-15T03:52:51.490Z,101198.72
2022-12-15T03:55:19.745Z,101208.19
2022-12-15T03:57:48.992Z,101199.56
2022-12-15T04:00:18.724Z,101209.16
2022-12-15T04:02:46.885Z,101207.63
2022-12-15T04:05:20.855Z,101217.22
2022-12-15T04:07:49.225Z,101218.06
2022-12-15T04:10:17.300Z,101222.56
2022-12-15T04:12:45.662Z,101219.91
2022-12-15T04:15:13.681Z,101222.56
2022-12-15T04:17:42.144Z,101222.72
2022-12-15T04:20:11.294Z,101213.41
2022-12-15T04:22:42.896Z,101213.56
2022-12-15T04:25:30.552Z,101214.47
2022-12-15T04:28:16.369Z,101218.06
2022-12-15T04:31:04.267Z,101204.38
2022-12-15T04:33:49.572Z,101213.13
2022-12-15T04:36:34.971Z,101201.13
2022-12-15T04:39:23.589Z,101191.13
2022-12-15T04:42:09.874Z,101200.13
2022-12-15T04:44:55.542Z,101200.53
2022-12-15T04:47:41.149Z,101198.16
2022-12-15T04:50:28.397Z,101210.56
2022-12-15T04:53:13.685Z,101201.38
2022-12-15T04:56:00.556Z,101205.69
2022-12-15T04:58:46.269Z,101201.66
2022-12-15T05:01:31.763Z,101198.38
2022-12-15T05:04:20.087Z,101204.81
2022-12-15T05:07:05.552Z,101202.31
2022-12-15T05:09:51.233Z,101203.06
2022-12-15T05:12:39.644Z,101211.03
2022-12-15T05:15:25.878Z,101212.84
2022-12-15T05:18:11.587Z,101214.50
2022-12-15T05:20:57.206Z,101204.13
2022-12-15T05:23:42.650Z,101208.44
2022-12-15T05:26:28.252Z,101212.75
2022-12-15T05:29:15.849Z,101217.09
2022-12-15T05:31:57.184Z,101205.88
2022-12-15T05:34:26.248Z,101204.75
2022-12-15T05:36:55.059Z,101209.06
2022-12-15T05:39:24.639Z,101207.25
2022-12-15T05:41:52.835Z,101207.38
2022-12-15T05:44:22.227Z,101210.19
2022-12-15T05:46:50.321Z,101209.34
2022-12-15T05:49:20.195Z,101204.50
2022-12-15T05:51:48.904Z,101218.06
2022-12-15T05:54:19.821Z,101213.81
2022-12-15T05:56:50.390Z,101208.69
2022-12-15T05:59:19.216Z,101217.44
2022-12-15T06:01:49.356Z,101209.59
2022-12-15T06:04:17.533Z,101205.28
2022-12-15T06:06:45.615Z,101202.16
2022-12-15T06:09:14.490Z,101217.59
2022-12-15T06:11:42.494Z,101220.16
2022-12-15T06:14:10.606Z,101227.97
2022-12-15T06:16:50.251Z,101221.84
2022-12-15T06:19:23.366Z,101227.78
2022-12-15T06:22:00.140Z,101210.00
2022-12-15T06:24:32.703Z,101218.22
2022-12-15T06:27:04.550Z,101228.38
2022-12-15T06:29:32.779Z,101233.59
2022-12-15T06:32:04.363Z,101232.00
2022-12-15T06:34:33.875Z,101232.16
2022-12-15T06:37:02.309Z,101249.50
2022-12-15T06:39:30.320Z,101244.34
2022-12-15T06:41:58.339Z,101257.47
2022-12-15T06:44:26.311Z,101246.34
2022-12-15T06:46:54.513Z,101249.03
2022-12-15T06:49:22.762Z,101242.22
2022-12-15T06:51:53.495Z,101243.22
2022-12-15T06:54:21.619Z,101242.44
2022-12-15T06:56:50.663Z,101238.25
2022-12-15T06:59:18.843Z,101248.75
2022-12-15T07:01:49.474Z,101251.47
2022-12-15T07:04:18.911Z,101254.91
2022-12-15T07:06:50.538Z,101247.34
2022-12-15T07:09:20.354Z,101243.00
2022-12-15T07:11:50.413Z,101238.75
2022-12-15T07:14:18.576Z,101246.75
2022-12-15T07:16:46.678Z,101252.94
2022-12-15T07:19:14.883Z,101232.09
2022-12-15T07:21:43.483Z,101237.31
2022-12-15T07:24:13.321Z,101234.84
2022-12-15T07:26:42.833Z,101240.97
2022-12-15T07:29:18.151Z,101241.97
2022-12-15T07:31:49.389Z,101237.50
2022-12-15T07:34:17.856Z,101232.25
2022-12-15T07:36:51.902Z,101241.75
2022-12-15T07:39:20.358Z,101242.66
2022-12-15T07:42:11.963Z,101239.00
2022-12-15T07:44:41.257Z,101248.56
2022-12-15T07:47:12.248Z,101246.03
2022-12-15T07:49:42.466Z,101240.75
2022-12-15T07:52:10.719Z,101245.91
2022-12-15T07:54:40.161Z,101254.63
2022-12-15T07:57:17.380Z,101252.03
2022-12-15T07:59:48.063Z,101240.81
2022-12-15T08:02:16.655Z,101256.22
2022-12-15T08:04:44.869Z,101258.81
2022-12-15T08:07:13.757Z,101258.03
2022-12-15T08:09:42.212Z,101260.69
2022-12-15T08:12:12.827Z,101266.16
2022-12-15T08:14:44.496Z,101273.91
2022-12-15T08:17:18.596Z,101268.81
2022-12-15T08:19:47.271Z,101269.56
2022-12-15T08:22:16.836Z,101270.41
2022-12-15T08:24:46.367Z,101281.47
2022-12-15T08:27:16.615Z,101278.81
2022-12-15T08:29:51.000Z,101281.22
2022-12-15T08:32:20.144Z,101278.97
2022-12-15T08:34:51.837Z,101300.06
2022-12-15T08:37:23.720Z,101299.03
2022-12-15T08:39:53.021Z,101299.94
2022-12-15T08:42:23.442Z,101307.38
2022-12-15T08:44:52.950Z,101306.16
2022-12-15T08:47:21.759Z,101306.84
2022-12-15T08:49:53.068Z,101317.00
2022-12-15T08:52:22.042Z,101317.84
2022-12-15T08:54:54.995Z,101311.78
2022-12-15T08:57:29.411Z,101317.47
2022-12-15T09:00:01.107Z,101326.00
2022-12-15T09:02:33.453Z,101323.53
2022-12-15T09:05:03.867Z,101325.22
2022-12-15T09:07:36.258Z,101323.41
2022-12-15T09:10:10.665Z,101337.88
2022-12-15T09:12:47.994Z,101336.97
2022-12-15T09:15:26.108Z,101334.38
2022-12-15T09:18:13.880Z,101336.97
2022-12-15T09:20:58.133Z,101336.91
2022-12-15T09:23:37.409Z,101340.22
2022-12-15T09:26:18.735Z,101347.16
2022-12-15T09:28:57.579Z,101359.22
2022-12-15T09:34:45.615Z,101351.97
2022-12-15T09:37:29.198Z,101351.97
2022-12-15T09:40:07.517Z,101355.81
2022-12-15T09:42:37.551Z,101357.47
2022-12-15T09:45:23.722Z,101348.47
2022-12-15T09:47:58.353Z,101348.97
2022-12-15T09:50:48.872Z,101336.38
2022-12-15T09:53:53.579Z,101349.34
2022-12-15T09:56:23.462Z,101358.59
2022-12-15T09:59:14.232Z,101364.19
2022-12-15T10:02:08.247Z,101354.69
2022-12-15T10:04:43.653Z,101338.91
2022-12-15T10:07:16.063Z,101360.63
2022-12-15T10:09:48.687Z,101368.53
2022-12-15T10:12:28.694Z,101374.88
2022-12-15T10:15:06.591Z,101384.91
2022-12-15T10:17:56.781Z,101379.41
2022-12-15T10:20:36.635Z,101369.38
2022-12-15T10:23:22.243Z,101385.88
2022-12-15T10:26:07.324Z,101380.88
2022-12-15T10:28:51.352Z,101380.31
2022-12-15T10:31:37.952Z,101386.63
2022-12-15T10:34:22.227Z,101354.38
2022-12-15T10:37:23.152Z,101372.41
2022-12-15T10:39:58.014Z,101384.59
2022-12-15T10:45:32.719Z,101380.13
2022-12-15T10:48:12.809Z,101338.84
2022-12-15T10:50:50.362Z,101385.16
2022-12-15T10:53:37.596Z,101368.28
2022-12-15T10:56:10.884Z,101367.84
2022-12-15T10:58:50.770Z,101363.53
2022-12-15T11:01:29.994Z,101371.69
2022-12-15T11:04:39.472Z,101367.88
2022-12-15T11:07:16.906Z,101357.91
2022-12-15T11:09:46.963Z,101371.59
2022-12-15T11:12:37.605Z,101369.59
2022-12-15T11:15:56.859Z,101361.47
2022-12-15T11:18:49.832Z,101331.53
2022-12-15T11:21:31.393Z,101358.59
2022-12-15T11:24:27.450Z,101365.22
2022-12-15T11:27:03.063Z,101367.53
2022-12-15T11:29:57.997Z,101370.63
2022-12-15T11:32:36.807Z,101361.66
2022-12-15T11:35:19.844Z,101362.16
2022-12-15T11:38:05.466Z,101374.34
2022-12-15T11:40:46.383Z,101359.44
2022-12-15T11:46:45.674Z,101361.78
2022-12-15T11:59:32.098Z,101356.16
2022-12-15T12:02:28.039Z,101352.25
2022-12-15T12:05:41.207Z,101362.22
2022-12-15T12:08:25.662Z,101353.88
2022-12-15T12:11:24.436Z,101357.94
2022-12-15T12:14:17.085Z,101352.31
2022-12-15T12:17:06.238Z,101351.13
2022-12-15T12:19:59.855Z,101342.84
2022-12-15T12:22:32.704Z,101350.44
2022-12-15T12:27:53.135Z,101353.53
2022-12-15T12:30:50.576Z,101346.00
2022-12-15T12:33:40.320Z,101355.50
2022-12-15T12:36:14.002Z,101353.03
2022-12-15T12:38:53.667Z,101361.00
2022-12-15T12:41:43.005Z,101357.44
2022-12-15T12:44:29.945Z,101351.44
2022-12-15T12:47:14.952Z,101355.75
2022-12-15T12:50:04.646Z,101343.00
2022-12-15T12:52:42.414Z,101346.19
2022-12-15T12:55:39.038Z,101354.53
2022-12-15T12:58:48.456Z,101342.53
2022-12-15T13:01:30.556Z,101358.97
2022-12-15T13:10:30.625Z,101350.16
2022-12-15T13:17:17.181Z,101362.97
2022-12-15T13:23:58.849Z,101358.66
2022-12-15T13:26:40.501Z,101353.66
2022-12-15T13:29:42.695Z,101357.84
2022-12-15T13:32:40.597Z,101362.13
2022-12-15T13:35:29.900Z,101348.44
2022-12-15T13:38:25.316Z,101350.72
2022-12-15T13:41:08.044Z,101355.69
2022-12-15T13:43:49.836Z,101346.03
2022-12-15T13:46:28.941Z,101351.03
2022-12-15T13:49:18.539Z,101349.16
2022-12-15T13:51:51.634Z,101346.44
2022-12-15T13:57:49.633Z,101345.13
2022-12-15T14:01:20.115Z,101317.63
2022-12-15T14:04:49.040Z,101323.19
2022-12-15T14:07:43.684Z,101349.25
2022-12-15T14:14:17.741Z,101342.50
2022-12-15T14:23:32.517Z,101341.84
2022-12-15T14:26:45.655Z,101346.06
2022-12-15T14:29:15.795Z,101344.38
2022-12-15T14:31:58.119Z,101353.19
2022-12-15T14:34:36.987Z,101343.72
2022-12-15T14:37:14.700Z,101350.38
2022-12-15T14:39:50.323Z,101346.81
2022-12-15T14:42:39.468Z,101344.75
2022-12-15T14:45:33.749Z,101337.16
2022-12-15T14:48:40.019Z,101339.50
2022-12-15T14:51:06.715Z,101347.94
2022-12-15T14:53:40.286Z,101342.88
2022-12-15T14:56:54.979Z,101354.25
2022-12-15T14:59:37.234Z,101346.44
2022-12-15T15:02:14.684Z,101317.22
2022-12-15T15:03:09.371Z,101340.81
2022-12-15T15:04:47.091Z,101346.63
2022-12-15T15:07:24.114Z,101343.25
2022-12-15T15:10:21.280Z,101335.00
2022-12-15T15:16:43.072Z,101291.25
2022-12-15T15:19:39.645Z,101335.38
2022-12-15T15:22:58.361Z,101316.38
2022-12-15T15:25:44.301Z,101334.84
2022-12-15T15:28:38.727Z,101344.72
2022-12-15T15:32:03.722Z,101303.19
2022-12-15T15:37:33.661Z,101339.56
2022-12-15T15:40:20.932Z,101358.53
2022-12-15T15:43:09.825Z,101367.50
2022-12-15T15:45:47.308Z,101374.13
2022-12-15T15:49:03.306Z,101375.31
2022-12-15T15:51:54.689Z,101378.56
2022-12-15T15:54:44.928Z,101344.91
2022-12-15T15:57:26.844Z,101377.75
2022-12-15T16:00:12.674Z,101383.41
2022-12-15T16:03:00.736Z,101358.59
2022-12-15T16:06:04.933Z,101393.78
2022-12-15T16:08:41.839Z,101371.84
2022-12-15T16:11:20.417Z,101390.72
2022-12-15T16:13:49.455Z,101397.28
2022-12-15T16:16:19.880Z,101404.72
2022-12-15T16:19:06.093Z,101391.81
2022-12-15T16:21:37.438Z,101405.84
2022-12-15T16:24:22.804Z,101399.38
2022-12-15T16:26:59.024Z,101380.38
2022-12-15T16:29:44.566Z,101373.38
2022-12-15T16:32:19.730Z,101401.66
2022-12-15T16:34:54.726Z,101406.03
2022-12-15T16:37:44.865Z,101415.88
2022-12-15T16:40:30.184Z,101412.03
2022-12-15T16:43:06.770Z,101417.28
2022-12-15T16:45:51.459Z,101393.88
2022-12-15T16:48:26.445Z,101362.88
2022-12-15T16:51:21.761Z,101418.16
2022-12-15T17:00:15.681Z,101414.63
2022-12-15T17:06:26.173Z,101406.66
2022-12-15T17:08:56.611Z,101424.97
2022-12-15T17:11:33.692Z,101422.72
2022-12-15T17:14:18.115Z,101426.72
2022-12-15T17:16:56.168Z,101417.66
2022-12-15T17:19:52.556Z,101406.09
2022-12-15T17:26:55.341Z,101443.75
2022-12-15T17:29:29.319Z,101452.06
2022-12-15T17:31:59.791Z,101444.28
2022-12-15T17:34:56.182Z,101453.72
2022-12-15T17:37:35.072Z,101454.78
2022-12-15T17:40:17.859Z,101450.34
2022-12-15T17:43:02.749Z,101462.50
2022-12-15T17:45:54.168Z,101442.00
2022-12-15T17:48:33.487Z,101465.19
2022-12-15T17:51:04.342Z,101470.41
2022-12-15T17:53:41.943Z,101470.53
2022-12-15T18:00:57.121Z,101479.00
2022-12-15T18:03:29.312Z,101483.31
2022-12-15T18:06:03.052Z,101485.94
2022-12-15T18:09:26.067Z,101486.84
2022-12-15T18:11:58.068Z,101495.88
2022-12-15T18:14:34.331Z,101496.84
2022-12-15T18:17:38.648Z,101496.84
2022-12-15T18:21:11.698Z,101505.69
2022-12-15T18:24:57.754Z,101494.75
2022-12-15T18:30:44.026Z,101495.06
2022-12-15T18:36:25.561Z,101498.88
2022-12-15T18:38:59.046Z,101501.53
2022-12-15T18:41:34.452Z,101503.50
2022-12-15T18:44:11.008Z,101507.03
2022-12-15T18:47:00.698Z,101512.38
2022-12-15T18:49:35.964Z,101517.75
2022-12-15T18:52:35.669Z,101490.69
2022-12-15T18:55:32.417Z,101493.56
2022-12-15T18:58:11.495Z,101522.56
2022-12-15T19:00:48.138Z,101528.69
2022-12-15T19:03:24.458Z,101534.00
2022-12-15T19:06:04.152Z,101537.78
2022-12-15T19:08:40.895Z,101543.16
2022-12-15T19:11:34.199Z,101527.91
2022-12-15T19:14:36.453Z,101546.56
2022-12-15T19:20:32.731Z,101539.69
2022-12-15T19:23:15.981Z,101551.91
2022-12-15T19:25:52.611Z,101557.25
2022-12-15T19:28:29.697Z,101551.25
2022-12-15T19:31:04.468Z,101514.91
2022-12-15T19:33:38.265Z,101566.97
2022-12-15T19:36:20.340Z,101570.56
2022-12-15T19:39:09.396Z,101532.38
2022-12-15T19:41:41.032Z,101576.81
2022-12-15T19:44:25.509Z,101575.19
2022-12-15T19:47:05.647Z,101577.91
2022-12-15T19:49:45.289Z,101575.34
2022-12-15T19:52:21.523Z,101570.13
2022-12-15T19:55:40.732Z,101585.00
2022-12-15T19:58:47.798Z,101575.72
2022-12-15T20:01:19.380Z,101587.72
2022-12-15T20:03:59.932Z,101580.00
2022-12-15T20:06:44.706Z,101599.25
2022-12-15T20:09:24.300Z,101601.94
2022-12-15T20:11:59.819Z,101596.03
2022-12-15T20:14:36.873Z,101596.09
2022-12-15T20:17:16.685Z,101597.06
2022-12-15T20:19:52.163Z,101603.97
2022-12-15T20:22:25.937Z,101611.13
2022-12-15T20:24:58.628Z,101608.59
2022-12-15T20:27:29.090Z,101598.34
2022-12-15T20:30:03.681Z,101605.22
2022-12-15T20:32:38.355Z,101613.81
2022-12-15T20:35:21.550Z,101617.31
2022-12-15T20:37:58.301Z,101611.38
2022-12-15T20:40:31.199Z,101618.25
2022-12-15T20:43:04.089Z,101607.41
2022-12-15T20:45:34.869Z,101615.13
2022-12-15T20:48:06.010Z,101618.41
2022-12-15T20:50:45.148Z,101620.22
2022-12-15T20:53:25.352Z,101622.16
2022-12-15T20:56:02.018Z,101617.72
2022-12-15T20:58:41.906Z,101634.28
2022-12-15T21:01:43.322Z,101631.53
2022-12-15T21:04:26.056Z,101621.28
2022-12-15T21:06:58.005Z,101627.38
2022-12-15T21:09:31.377Z,101639.50
2022-12-15T21:12:10.266Z,101649.13
2022-12-15T21:14:48.929Z,101657.84
2022-12-15T21:17:41.872Z,101629.84
2022-12-15T21:20:17.120Z,101650.16
2022-12-15T21:22:47.846Z,101654.44
2022-12-15T21:25:23.275Z,101648.31
2022-12-15T21:27:56.926Z,101609.38
2022-12-15T21:30:29.147Z,101651.00
2022-12-15T21:32:59.687Z,101642.66
2022-12-15T21:35:34.107Z,101650.25
2022-12-15T21:38:06.774Z,101665.06
2022-12-15T21:40:38.283Z,101662.50
2022-12-15T21:43:10.709Z,101672.69
2022-12-15T21:45:39.415Z,101668.41
2022-12-15T21:48:28.743Z,101637.72
2022-12-15T21:51:01.300Z,101665.09
2022-12-15T21:53:38.253Z,101670.16
2022-12-15T21:56:11.190Z,101666.00
2022-12-15T21:58:49.697Z,101667.84
2022-12-15T22:01:22.722Z,101665.28
2022-12-15T22:04:01.298Z,101672.88
2022-12-15T22:06:47.272Z,101667.94
2022-12-15T22:09:34.709Z,101681.88
2022-12-15T22:12:09.829Z,101679.38
2022-12-15T22:14:44.530Z,101670.84
2022-12-15T22:17:17.863Z,101666.56
2022-12-15T22:19:51.906Z,101656.69
2022-12-15T22:22:21.709Z,101682.09
2022-12-15T22:24:59.136Z,101682.09
2022-12-15T22:27:33.891Z,101671.66
2022-12-15T22:30:17.187Z,101688.84
2022-12-15T22:32:48.411Z,101694.00
2022-12-15T22:35:22.320Z,101694.00
2022-12-15T22:37:55.250Z,101693.31
2022-12-15T22:40:29.005Z,101693.19
2022-12-15T22:43:00.872Z,101681.38
2022-12-15T22:45:30.983Z,101687.25
2022-12-15T22:48:00.870Z,101683.16
2022-12-15T22:50:38.141Z,101695.19
2022-12-15T22:53:12.451Z,101699.34
2022-12-15T22:55:43.972Z,101700.88
2022-12-15T22:58:19.432Z,101694.75
2022-12-15T23:00:52.365Z,101687.22
2022-12-15T23:03:25.211Z,101695.94
2022-12-15T23:06:15.828Z,101704.66
2022-12-15T23:08:55.915Z,101708.16
2022-12-15T23:11:41.452Z,101710.81
2022-12-15T23:14:19.413Z,101697.28
2022-12-15T23:16:58.777Z,101700.50
2022-12-15T23:19:30.074Z,101693.53
2022-12-15T23:22:07.458Z,101685.72
2022-12-15T23:24:37.619Z,101676.50
2022-12-15T23:27:11.678Z,101700.56
2022-12-15T23:29:44.362Z,101699.88
2022-12-15T23:32:14.929Z,101696.56
2022-12-15T23:34:46.006Z,101696.69
2022-12-15T23:37:20.966Z,101685.75
2022-12-15T23:39:50.192Z,101703.47
2022-12-15T23:42:28.635Z,101705.09
2022-12-15T23:44:59.423Z,101701.41
2022-12-15T23:47:28.034Z,101705.56
2022-12-15T23:50:01.759Z,101714.06
2022-12-15T23:52:35.736Z,101712.25
2022-12-15T23:55:12.856Z,101697.09
2022-12-15T23:57:57.822Z,101726.19
